createdAt,value
2019-05-06T00:00:14.043Z,7.17
2019-05-06T00:05:25.083Z,7.77
2019-05-06T00:10:38.882Z,11.50
2019-05-06T00:15:48.895Z,8.40
2019-05-06T00:21:01.314Z,6.63
2019-05-06T00:32:01.342Z,11.33
2019-05-06T00:37:10.347Z,8.67
2019-05-06T00:42:31.210Z,7.60
2019-05-06T00:47:37.069Z,12.00
2019-05-06T00:52:47.579Z,14.33
2019-05-06T00:57:59.911Z,10.30
2019-05-06T01:03:10.013Z,10.40
2019-05-06T01:08:20.883Z,8.93
2019-05-06T01:13:35.189Z,8.73
2019-05-06T01:18:44.253Z,8.07
2019-05-06T01:23:54.498Z,9.50
2019-05-06T01:29:04.616Z,13.00
2019-05-06T01:34:14.628Z,9.57
2019-05-06T01:39:34.028Z,11.30
2019-05-06T01:44:40.996Z,12.43
2019-05-06T01:49:49.757Z,9.50
2019-05-06T01:55:04.843Z,10.47
2019-05-06T02:00:14.069Z,11.75
2019-05-06T02:05:21.522Z,9.87
2019-05-06T02:10:30.172Z,9.50
2019-05-06T02:15:41.599Z,9.53
2019-05-06T02:20:50.791Z,11.10
2019-05-06T02:25:57.345Z,10.33
2019-05-06T02:31:29.689Z,11.57
2019-05-06T02:36:58.419Z,8.93
2019-05-06T02:42:08.708Z,10.57
2019-05-06T02:47:28.864Z,15.70
2019-05-06T02:52:35.525Z,9.93
2019-05-06T02:57:44.221Z,14.00
2019-05-06T03:02:54.085Z,12.03
2019-05-06T03:08:03.276Z,10.07
2019-05-06T03:13:16.582Z,8.70
2019-05-06T03:18:32.874Z,9.43
2019-05-06T03:23:43.744Z,11.70
2019-05-06T03:28:49.703Z,13.83
2019-05-06T03:34:22.021Z,12.00
2019-05-06T03:39:08.683Z,10.07
2019-05-06T03:44:16.792Z,12.50
2019-05-06T03:49:23.886Z,11.53
2019-05-06T03:54:34.720Z,10.33
2019-05-06T03:59:43.665Z,9.10
2019-05-06T04:04:55.812Z,10.53
2019-05-06T04:10:03.431Z,9.17
2019-05-06T04:15:14.177Z,10.97
2019-05-06T04:20:43.367Z,11.20
2019-05-06T04:26:13.901Z,11.53
2019-05-06T04:31:22.826Z,9.57
2019-05-06T04:36:35.596Z,12.40
2019-05-06T04:41:44.641Z,11.40
2019-05-06T04:46:55.063Z,14.47
2019-05-06T04:52:03.918Z,10.03
2019-05-06T04:57:12.688Z,11.57
2019-05-06T05:02:22.988Z,9.80
2019-05-06T05:07:33.629Z,14.33
2019-05-06T05:12:55.346Z,12.33
2019-05-06T05:18:22.208Z,10.43
2019-05-06T05:23:52.330Z,10.93
2019-05-06T05:29:02.565Z,10.67
2019-05-06T05:34:12.736Z,10.97
2019-05-06T05:39:22.584Z,9.60
2019-05-06T05:44:34.728Z,9.60
2019-05-06T05:50:03.110Z,11.40
2019-05-06T05:55:12.061Z,12.73
2019-05-06T06:00:22.490Z,13.77
2019-05-06T06:05:33.150Z,13.63
2019-05-06T06:10:52.531Z,10.50
2019-05-06T06:16:24.670Z,13.13
2019-05-06T06:21:36.529Z,13.63
2019-05-06T06:26:47.420Z,10.90
2019-05-06T06:32:19.948Z,10.77
2019-05-06T06:37:47.822Z,11.13
2019-05-06T06:43:02.183Z,10.93
2019-05-06T06:48:14.279Z,13.70
2019-05-06T06:53:23.282Z,9.97
2019-05-06T06:58:46.414Z,11.30
2019-05-06T07:04:17.429Z,11.83
2019-05-06T07:09:26.172Z,10.93
2019-05-06T07:14:42.261Z,10.23
2019-05-06T07:19:56.318Z,12.17
2019-05-06T07:25:03.870Z,11.60
2019-05-06T07:30:14.443Z,8.27
2019-05-06T07:35:22.400Z,8.97
2019-05-06T07:40:32.757Z,6.90
2019-05-06T07:45:46.935Z,8.50
2019-05-06T07:50:54.179Z,8.10
2019-05-06T07:56:03.609Z,9.97
2019-05-06T08:01:13.531Z,8.53
2019-05-06T08:06:18.247Z,7.17
2019-05-06T08:11:26.135Z,8.05
2019-05-06T08:16:42.441Z,7.03
2019-05-06T08:21:49.286Z,8.63
2019-05-06T08:26:59.410Z,11.57
2019-05-06T08:32:07.666Z,11.20
2019-05-06T08:37:38.464Z,8.63
2019-05-06T08:42:46.591Z,12.53
2019-05-06T08:47:55.882Z,9.33
2019-05-06T08:53:17.456Z,9.13
2019-05-06T08:58:43.708Z,11.27
2019-05-06T09:04:05.580Z,15.60
2019-05-06T09:08:59.363Z,13.07
2019-05-06T09:14:09.868Z,11.57
2019-05-06T09:19:23.482Z,13.23
2019-05-06T09:24:29.022Z,13.27
2019-05-06T09:29:52.223Z,15.73
2019-05-06T09:35:03.698Z,14.10
2019-05-06T09:40:14.724Z,16.53
2019-05-06T09:45:25.580Z,10.90
2019-05-06T09:50:46.295Z,11.83
2019-05-06T09:56:13.182Z,9.80
2019-05-06T10:01:24.628Z,9.40
2019-05-06T10:06:33.216Z,8.23
2019-05-06T10:11:42.324Z,9.87
2019-05-06T10:16:52.400Z,9.43
2019-05-06T10:22:04.639Z,9.33
2019-05-06T10:27:13.506Z,9.67
2019-05-06T10:32:42.598Z,9.27
2019-05-06T10:38:02.928Z,8.70
2019-05-06T10:43:44.793Z,10.30
2019-05-06T10:48:56.223Z,10.47
2019-05-06T10:54:04.366Z,8.23
2019-05-06T10:59:16.829Z,8.20
2019-05-06T11:04:33.158Z,9.63
2019-05-06T11:09:42.615Z,7.90
2019-05-06T11:14:55.938Z,8.67
2019-05-06T11:20:03.474Z,8.00
2019-05-06T11:25:13.401Z,9.53
2019-05-06T11:30:33.596Z,7.30
2019-05-06T11:35:55.049Z,8.13
2019-05-06T11:41:00.854Z,9.03
2019-05-06T11:46:08.257Z,6.55
2019-05-06T11:51:23.090Z,9.55
2019-05-06T11:56:47.912Z,8.17
2019-05-06T12:01:53.449Z,8.43
2019-05-06T12:07:11.175Z,10.80
2019-05-06T12:12:17.707Z,10.27
2019-05-06T12:17:23.587Z,12.23
2019-05-06T12:22:38.739Z,13.40
2019-05-06T12:28:06.419Z,15.87
2019-05-06T12:33:36.946Z,11.93
2019-05-06T12:39:06.323Z,14.57
2019-05-06T12:44:13.153Z,16.37
2019-05-06T12:49:21.181Z,16.83
2019-05-06T12:54:29.917Z,18.83
2019-05-06T12:59:42.598Z,21.43
2019-05-06T13:04:59.668Z,20.10
2019-05-06T13:10:03.408Z,18.67
2019-05-06T13:15:27.495Z,22.93
2019-05-06T13:20:48.382Z,14.53
2019-05-06T13:25:52.588Z,15.13
2019-05-06T13:31:15.333Z,14.10
2019-05-06T13:36:13.237Z,13.40
2019-05-06T13:41:22.670Z,16.93
2019-05-06T13:46:36.134Z,15.63
2019-05-06T13:51:44.815Z,14.13
2019-05-06T13:56:53.584Z,13.90
2019-05-06T14:02:17.625Z,12.87
2019-05-06T14:07:24.611Z,13.33
2019-05-06T14:12:35.701Z,11.33
2019-05-06T14:17:42.496Z,10.23
2019-05-06T14:22:52.631Z,10.13
2019-05-06T14:28:06.433Z,11.22
2019-05-06T14:33:15.378Z,12.87
2019-05-06T14:38:24.682Z,12.13
2019-05-06T14:43:37.830Z,12.03
2019-05-06T14:48:48.021Z,11.63
2019-05-06T14:53:56.165Z,12.50
2019-05-06T14:59:12.563Z,12.23
2019-05-06T15:04:22.820Z,12.83
2019-05-06T15:09:34.657Z,13.23
2019-05-06T15:14:43.746Z,13.00
2019-05-06T15:19:53.131Z,13.13
2019-05-06T15:25:04.583Z,13.17
2019-05-06T15:30:23.037Z,13.00
2019-05-06T15:35:47.507Z,13.77
2019-05-06T15:40:54.770Z,12.30
2019-05-06T15:46:03.346Z,11.73
2019-05-06T15:51:12.257Z,12.87
2019-05-06T15:56:23.572Z,13.10
2019-05-06T16:01:33.475Z,12.90
2019-05-06T16:06:38.520Z,15.97
2019-05-06T16:11:48.946Z,12.73
2019-05-06T16:16:56.287Z,12.83
2019-05-06T16:22:03.936Z,12.13
2019-05-06T16:27:08.798Z,13.23
2019-05-06T16:32:18.816Z,9.77
2019-05-06T16:37:27.540Z,11.33
2019-05-06T16:42:37.091Z,11.57
2019-05-06T16:47:44.869Z,9.93
2019-05-06T16:52:54.146Z,11.57
2019-05-06T16:58:09.842Z,10.83
2019-05-06T17:03:32.923Z,9.23
2019-05-06T17:08:39.271Z,11.10
2019-05-06T17:13:58.413Z,10.47
2019-05-06T17:19:07.624Z,13.63
2019-05-06T17:24:15.379Z,12.93
2019-05-06T17:29:42.803Z,8.43
2019-05-06T17:35:15.292Z,11.83
2019-05-06T17:40:22.944Z,8.83
2019-05-06T17:45:59.357Z,11.67
2019-05-06T17:51:19.031Z,10.10
2019-05-06T17:56:26.250Z,10.73
2019-05-06T18:01:45.193Z,10.40
2019-05-06T18:06:54.081Z,10.30
2019-05-06T18:12:04.003Z,7.80
2019-05-06T18:17:12.322Z,8.77
2019-05-06T18:23:18.135Z,10.37
2019-05-06T18:28:27.521Z,9.07
2019-05-06T18:33:38.789Z,9.57
2019-05-06T18:38:45.475Z,8.13
2019-05-06T18:43:53.775Z,8.07
2019-05-06T18:49:02.568Z,8.07
2019-05-06T18:54:09.611Z,7.43
2019-05-06T18:59:23.213Z,6.90
2019-05-06T19:04:57.377Z,7.03
2019-05-06T19:10:13.600Z,7.27
2019-05-06T19:15:24.279Z,14.93
2019-05-06T19:20:35.858Z,7.57
2019-05-06T19:25:42.868Z,7.30
2019-05-06T19:30:54.072Z,9.10
2019-05-06T19:36:03.552Z,7.60
2019-05-06T19:41:15.172Z,11.53
2019-05-06T19:46:32.687Z,7.60
2019-05-06T19:51:39.657Z,6.90
2019-05-06T19:56:47.168Z,6.27
2019-05-06T20:01:57.300Z,8.13
2019-05-06T20:07:27.122Z,5.63
2019-05-06T20:12:38.799Z,9.90
2019-05-06T20:17:47.808Z,6.83
2019-05-06T20:22:54.309Z,5.47
2019-05-06T20:28:02.361Z,5.57
2019-05-06T20:33:07.878Z,6.73
2019-05-06T20:38:18.148Z,6.00
2019-05-06T20:43:24.483Z,6.93
2019-05-06T20:48:39.186Z,6.77
2019-05-06T20:53:45.097Z,5.80
2019-05-06T20:58:54.999Z,7.73
2019-05-06T21:04:07.384Z,6.67
2019-05-06T21:09:15.267Z,5.97
2019-05-06T21:14:26.474Z,6.60
2019-05-06T21:19:37.559Z,7.00
2019-05-06T21:24:47.141Z,7.60
2019-05-06T21:29:55.029Z,6.80
2019-05-06T21:35:05.828Z,6.20
2019-05-06T21:40:18.917Z,6.57
2019-05-06T21:45:27.820Z,5.97
2019-05-06T21:50:37.656Z,6.53
2019-05-06T21:55:46.850Z,6.70
2019-05-06T22:01:03.874Z,6.83
2019-05-06T22:06:15.186Z,6.23
2019-05-06T22:11:24.603Z,6.23
2019-05-06T22:16:34.316Z,6.53
2019-05-06T22:21:59.160Z,6.87
2019-05-06T22:27:05.107Z,7.47
2019-05-06T22:32:15.044Z,8.63
2019-05-06T22:37:24.228Z,6.67
2019-05-06T22:42:34.699Z,7.83
2019-05-06T22:47:42.678Z,11.40
2019-05-06T22:52:49.325Z,7.53
2019-05-06T22:57:56.890Z,11.70
2019-05-06T23:03:12.339Z,12.77
2019-05-06T23:08:19.825Z,8.17
2019-05-06T23:13:30.110Z,9.67
2019-05-06T23:18:36.518Z,7.87
2019-05-06T23:23:49.332Z,9.07
2019-05-06T23:28:58.683Z,7.57
2019-05-06T23:34:08.961Z,9.17
2019-05-06T23:40:05.791Z,9.00
2019-05-06T23:45:49.380Z,8.93
2019-05-06T23:51:33.065Z,7.23
2019-05-06T23:56:43.500Z,7.73
